»·PEaware :: USC243 KBPI-KGCC

USC243 :: KBPI-KGCC

FLIGHT INFORMATION

Flight Status: Arrived
Operator: Unknown
More flights by this operator :: More flights under this callsign
Pilot: Andy P. (22680)
Aircraft: GATES LEARJET LEARJET 35/36
(LJ35)
More flights by this aircraft type
Origin: KBPI Big Piney-Marbleton
United States
Destination: KGCC Gillette-Campbell Co
United States
More flights between these airports :: More routes between these airports
Route: BPI BOY J32 CZI JENNE
File this flight plan on PilotEdge
Remarks:
Altitude:
(Current/Filed)
31,000ft
Speed:
(Current/Filed)
465kts
Departed: 26-Feb-19 11:40 AM
Arrived: 26-Feb-19 12:16 PM
Distance/Time
Traveled:
226nm/0:36
Distance/Time
To Go:
Arrived

Flight Plot

Page will automatically refresh every two minutes.

Flight plan parsing failed; only flown route is shown


Map Options




Map Legend


Flown Route
Filed Route
Departure Airport
Arrival Airport
Navaid (VOR, NDB)
Fix

Horizontal Profiles

Position Reports

Time Latitude Longitude Heading Altitude Ground
Speed
26-Feb-19 11:22 42.578610 -110.103880 141 6992ft 0kts
26-Feb-19 11:23 42.578610 -110.103880 141 6992ft 0kts
26-Feb-19 11:24 42.578610 -110.103880 141 6992ft 0kts
26-Feb-19 11:25 42.578610 -110.103880 141 6992ft 0kts
26-Feb-19 11:26 42.578610 -110.103880 141 6992ft 0kts
26-Feb-19 11:27 42.578610 -110.103880 141 6992ft 0kts
26-Feb-19 11:28 42.578610 -110.103880 141 6992ft 0kts
26-Feb-19 11:29 42.578610 -110.103880 141 6992ft 0kts
26-Feb-19 11:30 42.578610 -110.103880 141 6992ft 0kts
26-Feb-19 11:31 42.578610 -110.103880 141 6992ft 0kts
26-Feb-19 11:32 42.578610 -110.103880 141 6992ft 0kts
26-Feb-19 11:33 42.578610 -110.103880 141 6992ft 0kts
26-Feb-19 11:34 42.578610 -110.103880 141 6992ft 0kts
26-Feb-19 11:35 42.578610 -110.103880 141 6992ft 0kts
26-Feb-19 11:37 42.577646 -110.103599 221 6992ft 0kts
26-Feb-19 11:38 42.577645 -110.103600 221 6992ft 0kts
26-Feb-19 11:39 42.577345 -110.104555 323 6992ft 0kts
26-Feb-19 11:40 42.601298 -110.124147 330 7671ft 194kts
26-Feb-19 11:41 42.659660 -110.151472 348 11958ft 251kts
26-Feb-19 11:42 42.712079 -110.082887 76 15926ft 324kts
26-Feb-19 11:43 42.732195 -109.951434 83 18584ft 402kts
26-Feb-19 11:44 42.748375 -109.787174 80 20889ft 475kts
26-Feb-19 11:45 42.815180 -109.634176 50 24332ft 483kts
26-Feb-19 11:46 42.892586 -109.480256 51 27048ft 500kts
26-Feb-19 11:47 42.970658 -109.320152 47 29224ft 509kts
26-Feb-19 11:48 43.049923 -109.158743 50 30921ft 522kts
26-Feb-19 11:49 43.130930 -108.992736 51 30934ft 527kts
26-Feb-19 11:50 43.212332 -108.824462 51 30935ft 531kts
26-Feb-19 11:51 43.293782 -108.655023 51 30898ft 534kts
26-Feb-19 11:52 43.375361 -108.484311 52 30911ft 535kts
26-Feb-19 11:53 43.455216 -108.311210 57 30957ft 538kts
26-Feb-19 11:54 43.515919 -108.121832 64 30999ft 542kts
26-Feb-19 11:54 43.563355 -107.961670 65 31041ft 542kts
26-Feb-19 11:55 43.619902 -107.769011 65 30003ft 529kts
26-Feb-19 11:57 43.683016 -107.552347 65 27656ft 519kts
26-Feb-19 11:58 43.736671 -107.366624 65 25712ft 522kts
26-Feb-19 11:58 43.781189 -107.211478 65 24128ft 519kts
26-Feb-19 11:59 43.833931 -107.026362 66 22186ft 514kts
26-Feb-19 12:01 43.894254 -106.812948 66 19994ft 504kts
26-Feb-19 12:01 43.936323 -106.663023 66 18437ft 496kts
26-Feb-19 12:02 43.984572 -106.489754 67 16652ft 468kts
26-Feb-19 12:03 44.018163 -106.318719 76 14939ft 451kts
26-Feb-19 12:04 44.043657 -106.158265 76 14794ft 409kts
26-Feb-19 12:05 44.066598 -106.012248 77 12403ft 366kts
26-Feb-19 12:06 44.086431 -105.884657 77 11146ft 310kts
26-Feb-19 12:07 44.104091 -105.770207 77 10154ft 295kts
26-Feb-19 12:08 44.119070 -105.660237 84 9186ft 278kts
26-Feb-19 12:09 44.125536 -105.557408 83 7806ft 256kts
26-Feb-19 12:10 44.167562 -105.498166 4 6742ft 213kts
26-Feb-19 12:11 44.221068 -105.509517 350 6266ft 172kts
26-Feb-19 12:12 44.264913 -105.519834 350 5715ft 137kts
26-Feb-19 12:13 44.301443 -105.529552 348 5210ft 134kts
26-Feb-19 12:14 44.338294 -105.539149 349 4401ft 123kts
26-Feb-19 12:15 44.351151 -105.541515 123 4368ft 2kts
26-Feb-19 12:16 44.350448 -105.540062 124 4368ft 15kts
26-Feb-19 12:17 44.347490 -105.536998 116 4368ft 14kts
26-Feb-19 12:18 44.347819 -105.533783 163 4368ft 0kts
26-Feb-19 12:19 44.347819 -105.533783 163 4368ft 0kts

Navigation Log

Ident Type
Flight plan parsing failed, navigation log unavailable